Time;durP1;ratioP1;P1;durP2;ratioP2;P2;SDS_P1;SDS_P2;PMS_P1;PMS_P2;Temp;Humidity;BMP_temperature;BMP_pressure;BME280_temperature;BME280_humidity;BME280_pressure;Samples;Min_cycle;Max_cycle;Signal;HPM_P1;HPM_P2
2021/09/08 00:02:18;;;;;;;;;;;;;;;25.97;nan;100760.09;5035662;28;19920;-43
2021/09/08 00:04:43;;;;;;;;;;;;;;;25.96;nan;100743.94;5017133;28;19913;-45
2021/09/08 00:07:09;;;;;;;;;;;;;;;25.97;nan;100748.34;5017221;28;20341;-44
2021/09/08 00:09:34;;;;;;;;;;;;;;;25.97;nan;100751.06;5034796;28;19936;-46
2021/09/08 00:11:59;;;;;;;;;;;;;;;25.95;nan;100742.22;5034791;28;19913;-43
2021/09/08 00:14:25;;;;;;;;;;;;;;;25.96;nan;100752.09;5034888;28;19913;-44
2021/09/08 00:16:50;;;;;;;;;;;;;;;25.95;nan;100747.69;5034769;28;19917;-45
2021/09/08 00:19:15;;;;;;;;;;;;;;;;;;5034645;28;19913;-43
2021/09/08 00:21:41;;;;;;;;;;;;;;;25.93;nan;100733.34;5016783;28;19944;-44
2021/09/08 00:24:06;;;;;;;;;;;;;;;25.95;nan;100750.41;5034580;28;19913;-44
2021/09/08 00:26:31;;;;;;;;;;;;;;;25.94;nan;100745.94;5034747;28;19917;-42
2021/09/08 00:28:56;;;;;;;;;;;;;;;25.94;nan;100745.94;5034592;28;19913;-44
2021/09/08 00:31:22;;;;;;;;;;;;;;;25.94;nan;100743.22;5034518;28;19917;-44
2021/09/08 00:33:47;;;;;;;;;;;;;;;25.93;nan;100745.09;5034477;28;19913;-44
2021/09/08 00:36:12;;;;;;;;;;;;;;;25.92;nan;100743.41;5016787;28;19937;-46
2021/09/08 00:38:38;;;;;;;;;;;;;;;25.92;nan;100737.94;5034464;28;19913;-45
2021/09/08 00:41:03;;;;;;;;;;;;;;;25.91;nan;100736.25;5016479;28;19913;-43
2021/09/08 00:43:28;;;;;;;;;;;;;;;25.91;nan;100746.25;5034364;28;19913;-43
2021/09/08 00:45:54;;;;;;;;;;;;;;;25.91;nan;100746.25;5034142;28;19921;-44
2021/09/08 00:48:20;;;;;;;;;;;;;;;25.90;nan;100739.09;5034227;28;19913;-43
2021/09/08 00:50:46;;;;;;;;;;;;;;;25.89;nan;100735.53;5016280;28;19924;-43
2021/09/08 00:53:12;;;;;;;;;;;;;;;25.90;nan;100730.94;5034160;28;19942;-45
2021/09/08 00:55:38;;;;;;;;;;;;;;;25.90;nan;100722.78;5033985;28;20325;-41
2021/09/08 00:58:03;;;;;;;;;;;;;;;25.90;nan;100728.22;5034115;28;19913;-44
2021/09/08 01:00:29;;;;;;;;;;;;;;;25.89;nan;100719.19;5033932;28;19920;-46
2021/09/08 01:02:55;;;;;;;;;;;;;;;25.89;nan;100710.19;5033809;28;19913;-44
2021/09/08 01:05:23;;;;;;;;;;;;;;;25.88;nan;100708.47;5034168;28;19913;-44
2021/09/08 01:07:49;;;;;;;;;;;;;;;25.87;nan;100702.19;5034054;28;20298;-44
2021/09/08 01:10:14;;;;;;;;;;;;;;;25.88;nan;100686.69;5015935;28;19971;-44
2021/09/08 01:12:39;;;;;;;;;;;;;;;25.85;nan;100687.84;5016018;28;19913;-44
2021/09/08 01:15:05;;;;;;;;;;;;;;;25.88;nan;100689.41;5033662;28;19920;-44
2021/09/08 01:17:30;;;;;;;;;;;;;;;25.88;nan;100703.03;5033704;28;19958;-44
2021/09/08 01:19:56;;;;;;;;;;;;;;;;;;5033381;28;20030;-44
2021/09/08 01:22:27;;;;;;;;;;;;;;;25.87;nan;100687.69;5033605;28;20441;-44
2021/09/08 01:24:52;;;;;;;;;;;;;;;25.86;nan;100688.72;5015821;28;20004;-43
2021/09/08 01:27:17;;;;;;;;;;;;;;;25.85;nan;100676.97;5015860;28;20029;-43
2021/09/08 01:29:43;;;;;;;;;;;;;;;25.85;nan;100679.69;5033539;28;20298;-43
2021/09/08 01:32:08;;;;;;;;;;;;;;;25.85;nan;100692.47;5033336;28;20350;-42
2021/09/08 01:34:33;;;;;;;;;;;;;;;25.85;nan;100682.41;5033521;28;19913;-41
2021/09/08 01:36:59;;;;;;;;;;;;;;;25.85;nan;100685.13;5033146;28;19917;-43
2021/09/08 01:39:24;;;;;;;;;;;;;;;25.85;nan;100676.13;5033683;28;20000;-42
2021/09/08 01:41:50;;;;;;;;;;;;;;;25.84;nan;100679.88;5033132;28;20348;-44
2021/09/08 01:44:19;;;;;;;;;;;;;;;25.82;nan;100673.72;5033275;28;19921;-46
2021/09/08 01:46:45;;;;;;;;;;;;;;;25.83;nan;100667.25;5033041;28;19923;-42
2021/09/08 01:49:10;;;;;;;;;;;;;;;25.83;nan;100662.66;5033229;28;20204;-44
2021/09/08 01:51:35;;;;;;;;;;;;;;;25.83;nan;100667.25;5015239;28;19913;-44
2021/09/08 01:54:00;;;;;;;;;;;;;;;25.83;nan;100670.81;5033107;28;19920;-42
2021/09/08 01:56:26;;;;;;;;;;;;;;;25.84;nan;100663.53;5015091;28;19917;-42
2021/09/08 01:58:51;;;;;;;;;;;;;;;25.83;nan;100659.06;5033057;28;19921;-42
2021/09/08 02:01:16;;;;;;;;;;;;;;;25.82;nan;100666.41;5032600;28;19920;-43
2021/09/08 02:03:42;;;;;;;;;;;;;;;25.82;nan;100652.78;5015125;28;20172;-43
2021/09/08 02:06:23;;;;;;;;;;;;;;;25.81;nan;100659.25;5032543;28;20413;-42
2021/09/08 02:08:48;;;;;;;;;;;;;;;25.82;nan;100654.66;5015404;28;20303;-43
2021/09/08 02:11:14;;;;;;;;;;;;;;;25.81;nan;100658.41;5032434;28;19944;-44
2021/09/08 02:13:39;;;;;;;;;;;;;;;25.81;nan;100652.97;5031544;28;20318;-42
2021/09/08 02:16:04;;;;;;;;;;;;;;;25.82;nan;100654.66;5031685;28;20397;-43
2021/09/08 02:18:30;;;;;;;;;;;;;;;25.82;nan;100649.22;5032492;28;19987;-42
2021/09/08 02:20:55;;;;;;;;;;;;;;;25.81;nan;100644.78;5032092;28;19928;-42
2021/09/08 02:23:20;;;;;;;;;;;;;;;25.81;nan;100650.22;5014610;28;19917;-43
2021/09/08 02:25:46;;;;;;;;;;;;;;;25.80;nan;100646.66;5032434;28;19967;-43
2021/09/08 02:28:11;;;;;;;;;;;;;;;25.80;nan;100637.63;5032453;28;20043;-43
2021/09/08 02:30:36;;;;;;;;;;;;;;;25.80;nan;100645.81;5032548;28;20291;-44
2021/09/08 02:33:02;;;;;;;;;;;;;;;25.80;nan;100643.94;5032507;28;19913;-43
2021/09/08 02:35:27;;;;;;;;;;;;;;;25.80;nan;100645.81;5032183;28;19924;-43
2021/09/08 02:37:52;;;;;;;;;;;;;;;25.80;nan;100640.38;5032392;28;19924;-44
2021/09/08 02:40:18;;;;;;;;;;;;;;;25.80;nan;100640.38;5014359;28;20346;-43
2021/09/08 02:42:43;;;;;;;;;;;;;;;25.79;nan;100636.75;5014329;28;19913;-44
2021/09/08 02:45:09;;;;;;;;;;;;;;;25.79;nan;100630.47;5032203;28;19952;-44
2021/09/08 02:47:34;;;;;;;;;;;;;;;25.77;nan;100626.00;5032115;28;19964;-41
2021/09/08 02:49:59;;;;;;;;;;;;;;;25.76;nan;100629.75;5031985;28;19913;-43
2021/09/08 02:52:25;;;;;;;;;;;;;;;25.76;nan;100629.75;5031892;28;19921;-45
2021/09/08 02:54:50;;;;;;;;;;;;;;;25.76;nan;100618.88;5032057;28;19913;-45
2021/09/08 02:57:15;;;;;;;;;;;;;;;25.76;nan;100613.41;5031757;28;19917;-44
2021/09/08 02:59:40;;;;;;;;;;;;;;;25.76;nan;100618.03;5031838;28;19920;-44
2021/09/08 03:02:06;;;;;;;;;;;;;;;25.75;nan;100619.84;5013809;28;19920;-44
2021/09/08 03:04:31;;;;;;;;;;;;;;;;;;5031816;28;19913;-46
2021/09/08 03:06:58;;;;;;;;;;;;;;;25.76;nan;100609.84;5031810;28;20298;-45
2021/09/08 03:09:23;;;;;;;;;;;;;;;25.74;nan;100610.00;5031734;28;20015;-44
2021/09/08 03:11:48;;;;;;;;;;;;;;;25.74;nan;100610.00;5031477;28;19996;-45
2021/09/08 03:14:14;;;;;;;;;;;;;;;25.75;nan;100598.06;5031598;28;19967;-42
2021/09/08 03:16:39;;;;;;;;;;;;;;;25.74;nan;100614.59;5031507;28;20376;-44
2021/09/08 03:19:04;;;;;;;;;;;;;;;25.74;nan;100599.09;5013864;28;19913;-43
2021/09/08 03:21:30;;;;;;;;;;;;;;;25.73;nan;100597.41;5055821;23;19924;-47
2021/09/08 03:23:56;;;;;;;;;;;;;;;25.72;nan;100595.72;5051652;28;20015;-47
2021/09/08 03:26:21;;;;;;;;;;;;;;;25.73;nan;100591.13;5049515;28;19912;-45
2021/09/08 03:28:46;;;;;;;;;;;;;;;25.72;nan;100590.25;5051786;28;19916;-48
2021/09/08 03:31:12;;;;;;;;;;;;;;;25.71;nan;100585.81;5051749;28;19916;-47
2021/09/08 03:33:37;;;;;;;;;;;;;;;25.72;nan;100587.53;5051862;28;19963;-49
2021/09/08 03:36:03;;;;;;;;;;;;;;;25.71;nan;100577.66;5051677;28;20394;-47
2021/09/08 03:38:28;;;;;;;;;;;;;;;25.71;nan;100577.66;5051689;28;20060;-45
2021/09/08 03:40:53;;;;;;;;;;;;;;;25.72;nan;100583.97;5051710;28;20431;-45
2021/09/08 03:43:19;;;;;;;;;;;;;;;25.71;nan;100574.91;5051426;28;19913;-45
2021/09/08 03:45:44;;;;;;;;;;;;;;;25.71;nan;100566.75;5051638;28;19920;-44
2021/09/08 03:48:09;;;;;;;;;;;;;;;25.70;nan;100565.06;5050224;28;19913;-45
2021/09/08 03:50:35;;;;;;;;;;;;;;;25.71;nan;100568.63;5051575;28;19920;-46
2021/09/08 03:53:00;;;;;;;;;;;;;;;25.70;nan;100573.22;5050326;28;19913;-45
2021/09/08 03:55:26;;;;;;;;;;;;;;;25.71;nan;100561.31;5051672;28;19956;-44
2021/09/08 03:57:51;;;;;;;;;;;;;;;25.70;nan;100567.78;5051542;28;19917;-44
2021/09/08 04:00:16;;;;;;;;;;;;;;;25.68;nan;100564.38;5050442;28;19913;-44
2021/09/08 04:02:42;;;;;;;;;;;;;;;25.68;nan;100564.38;5050361;28;19935;-44
2021/09/08 04:05:08;;;;;;;;;;;;;;;25.69;nan;100566.09;5051651;28;19912;-45
2021/09/08 04:07:33;;;;;;;;;;;;;;;25.68;nan;100561.66;5051649;28;19950;-48
2021/09/08 04:09:58;;;;;;;;;;;;;;;25.69;nan;100566.09;5051482;28;20023;-44
2021/09/08 04:12:23;;;;;;;;;;;;;;;25.68;nan;100561.66;5051447;28;19959;-45
2021/09/08 04:14:49;;;;;;;;;;;;;;;25.68;nan;100561.66;5051500;28;19920;-44
2021/09/08 04:17:14;;;;;;;;;;;;;;;25.68;nan;100561.66;5052006;28;19924;-45
2021/09/08 04:19:39;;;;;;;;;;;;;;;25.68;nan;100564.38;5051253;28;19913;-46
2021/09/08 04:22:05;;;;;;;;;;;;;;;25.67;nan;100565.38;5050958;28;19925;-45
2021/09/08 04:24:30;;;;;;;;;;;;;;;25.68;nan;100563.50;5051159;28;19913;-46
2021/09/08 04:26:55;;;;;;;;;;;;;;;25.67;nan;100559.94;5051287;28;19978;-47
2021/09/08 04:29:21;;;;;;;;;;;;;;;25.67;nan;100561.81;5051500;28;19913;-47
2021/09/08 04:31:46;;;;;;;;;;;;;;;25.66;nan;100565.56;5051196;28;19913;-47
2021/09/08 04:34:12;;;;;;;;;;;;;;;25.63;nan;100555.84;5049978;28;19998;-49
2021/09/08 04:36:37;;;;;;;;;;;;;;;25.66;nan;100560.09;5051169;28;20027;-48
2021/09/08 04:39:03;;;;;;;;;;;;;;;25.65;nan;100553.81;5054755;28;19913;-47
2021/09/08 04:41:29;;;;;;;;;;;;;;;25.64;nan;100563.00;5054721;28;19919;-45
2021/09/08 04:43:54;;;;;;;;;;;;;;;25.64;nan;100563.00;5054674;28;19999;-46
2021/09/08 04:46:20;;;;;;;;;;;;;;;25.65;nan;100555.69;5053455;28;20440;-46
2021/09/08 04:48:45;;;;;;;;;;;;;;;25.65;nan;100564.72;5054516;28;19917;-47
2021/09/08 04:51:10;;;;;;;;;;;;;;;25.64;nan;100564.84;5054619;28;19995;-46
2021/09/08 04:53:36;;;;;;;;;;;;;;;25.64;nan;100565.72;5054509;28;19917;-45
2021/09/08 04:56:01;;;;;;;;;;;;;;;25.64;nan;100554.84;5054560;28;19924;-47
2021/09/08 04:58:26;;;;;;;;;;;;;;;25.63;nan;100547.66;5053087;28;19913;-46
2021/09/08 05:00:52;;;;;;;;;;;;;;;25.64;nan;100559.41;5054323;28;19912;-47
2021/09/08 05:03:17;;;;;;;;;;;;;;;25.61;nan;100555.16;5052993;28;19912;-46
2021/09/08 05:05:42;;;;;;;;;;;;;;;25.63;nan;100558.56;5054158;28;19913;-46
2021/09/08 05:08:08;;;;;;;;;;;;;;;25.61;nan;100547.00;5054350;28;19916;-44
2021/09/08 05:10:33;;;;;;;;;;;;;;;25.63;nan;100557.72;5054136;28;19912;-47
2021/09/08 05:12:58;;;;;;;;;;;;;;;25.61;nan;100560.59;5054189;28;19919;-48
2021/09/08 05:15:24;;;;;;;;;;;;;;;25.62;nan;100559.59;5053953;28;19952;-45
2021/09/08 05:17:49;;;;;;;;;;;;;;;25.62;nan;100556.84;5054496;28;20075;-47
2021/09/08 05:20:14;;;;;;;;;;;;;;;25.62;nan;100558.72;5053788;28;20390;-46
2021/09/08 05:22:40;;;;;;;;;;;;;;;25.61;nan;100557.03;5053885;28;19925;-46
2021/09/08 05:25:06;;;;;;;;;;;;;;;25.61;nan;100557.88;5054023;28;19971;-49
2021/09/08 05:27:31;;;;;;;;;;;;;;;25.61;nan;100563.31;5053786;28;20271;-48
2021/09/08 05:29:56;;;;;;;;;;;;;;;25.61;nan;100566.03;5053881;28;20294;-45
2021/09/08 05:32:22;;;;;;;;;;;;;;;25.59;nan;100561.78;5053787;28;19986;-48
2021/09/08 05:34:47;;;;;;;;;;;;;;;25.60;nan;100568.91;5053598;28;19913;-45
2021/09/08 05:37:12;;;;;;;;;;;;;;;25.59;nan;100568.06;5052515;28;20031;-46
2021/09/08 05:39:38;;;;;;;;;;;;;;;25.60;nan;100580.66;5053489;28;20048;-46
2021/09/08 05:42:03;;;;;;;;;;;;;;;25.59;nan;100578.94;5053605;28;20306;-48
2021/09/08 05:44:28;;;;;;;;;;;;;;;25.59;nan;100570.78;5053591;28;19917;-46
2021/09/08 05:46:54;;;;;;;;;;;;;;;25.59;nan;100565.34;5054361;28;19974;-47
2021/09/08 05:49:19;;;;;;;;;;;;;;;25.58;nan;100571.81;5052756;28;19995;-47
2021/09/08 05:51:44;;;;;;;;;;;;;;;25.58;nan;100571.81;5053417;28;20015;-45
2021/09/08 05:54:10;;;;;;;;;;;;;;;25.57;nan;100564.66;5053373;28;19913;-48
2021/09/08 05:56:35;;;;;;;;;;;;;;;25.57;nan;100570.13;5053211;28;19920;-46
2021/09/08 05:59:01;;;;;;;;;;;;;;;25.57;nan;100564.66;5053309;28;20369;-44
2021/09/08 06:01:26;;;;;;;;;;;;;;;25.57;nan;100570.13;5053147;28;20382;-46
2021/09/08 06:03:52;;;;;;;;;;;;;;;25.57;nan;100570.13;5052003;28;20334;-44
2021/09/08 06:06:17;;;;;;;;;;;;;;;25.55;nan;100577.56;5053111;28;19916;-47
2021/09/08 06:08:42;;;;;;;;;;;;;;;;;;5053609;28;19920;-48
2021/09/08 06:11:08;;;;;;;;;;;;;;;25.56;nan;100579.28;5052880;28;19970;-44
2021/09/08 06:13:33;;;;;;;;;;;;;;;25.56;nan;100584.72;5053187;28;20004;-46
2021/09/08 06:15:59;;;;;;;;;;;;;;;25.56;nan;100568.38;5052950;28;20024;-49
2021/09/08 06:18:24;;;;;;;;;;;;;;;25.57;nan;100569.25;5053262;28;19913;-49
2021/09/08 06:20:50;;;;;;;;;;;;;;;25.57;nan;100569.25;5052570;28;20386;-46
2021/09/08 06:23:16;;;;;;;;;;;;;;;25.57;nan;100561.09;5053241;28;19921;-46
2021/09/08 06:25:41;;;;;;;;;;;;;;;25.56;nan;100562.94;5051453;28;19924;-45
2021/09/08 06:28:06;;;;;;;;;;;;;;;;;;5053039;28;19912;-45
2021/09/08 06:30:32;;;;;;;;;;;;;;;25.56;nan;100573.81;5051252;28;20402;-49
2021/09/08 06:32:57;;;;;;;;;;;;;;;25.56;nan;100565.66;5051428;28;19912;-45
2021/09/08 06:35:22;;;;;;;;;;;;;;;25.57;nan;100570.13;5052449;28;20004;-47
2021/09/08 06:37:48;;;;;;;;;;;;;;;25.54;nan;100559.53;5052654;28;20401;-46
2021/09/08 06:40:15;;;;;;;;;;;;;;;25.55;nan;100577.56;5052608;28;20199;-46
2021/09/08 06:42:40;;;;;;;;;;;;;;;25.57;nan;100569.25;5052487;28;19931;-48
2021/09/08 06:45:06;;;;;;;;;;;;;;;25.57;nan;100569.25;5051198;28;20361;-47
2021/09/08 06:47:31;;;;;;;;;;;;;;;25.57;nan;100581.00;5052218;28;19913;-45
2021/09/08 06:49:57;;;;;;;;;;;;;;;25.57;nan;100570.13;5052357;28;19919;-47
2021/09/08 06:52:22;;;;;;;;;;;;;;;25.55;nan;100568.56;5052145;28;19913;-47
2021/09/08 06:54:47;;;;;;;;;;;;;;;25.57;nan;100570.13;5052279;28;19913;-46
2021/09/08 06:57:13;;;;;;;;;;;;;;;25.58;nan;100570.97;5050643;28;20379;-44
2021/09/08 06:59:43;;;;;;;;;;;;;;;25.58;nan;100579.13;5051917;28;20374;-48
2021/09/08 07:02:08;;;;;;;;;;;;;;;25.57;nan;100581.00;5052050;28;19948;-48
2021/09/08 07:04:34;;;;;;;;;;;;;;;25.58;nan;100577.25;5052345;28;20347;-44
2021/09/08 07:07:00;;;;;;;;;;;;;;;25.59;nan;100575.38;5052170;28;20323;-44
2021/09/08 07:09:25;;;;;;;;;;;;;;;25.56;nan;100560.22;5052096;28;19958;-47
2021/09/08 07:11:50;;;;;;;;;;;;;;;25.57;nan;100570.13;5051955;28;19952;-46
2021/09/08 07:14:15;;;;;;;;;;;;;;;25.58;nan;100566.38;5052007;28;19917;-46
2021/09/08 07:16:41;;;;;;;;;;;;;;;;;;5051795;28;20002;-46
2021/09/08 07:19:06;;;;;;;;;;;;;;;25.58;nan;100565.53;5050700;28;19924;-44
2021/09/08 07:21:31;;;;;;;;;;;;;;;25.58;nan;100579.97;5051578;28;19921;-45
2021/09/08 07:23:57;;;;;;;;;;;;;;;25.58;nan;100574.53;5051989;28;20307;-47
2021/09/08 07:26:22;;;;;;;;;;;;;;;25.59;nan;100567.22;5051682;28;19921;-44
2021/09/08 07:28:47;;;;;;;;;;;;;;;25.59;nan;100570.78;5051791;28;19966;-46
2021/09/08 07:31:13;;;;;;;;;;;;;;;25.59;nan;100581.69;5051572;28;20389;-46
2021/09/08 07:33:38;;;;;;;;;;;;;;;25.59;nan;100565.34;5051760;28;20404;-44
2021/09/08 07:36:03;;;;;;;;;;;;;;;25.59;nan;100570.78;5051580;28;20302;-44
2021/09/08 07:38:29;;;;;;;;;;;;;;;25.60;nan;100567.03;5051741;28;19913;-45
2021/09/08 07:40:55;;;;;;;;;;;;;;;25.61;nan;100576.09;5052243;28;19917;-45
2021/09/08 07:43:21;;;;;;;;;;;;;;;25.60;nan;100572.47;5051561;28;19917;-44
2021/09/08 07:45:47;;;;;;;;;;;;;;;25.61;nan;100576.94;5051660;28;19916;-44
2021/09/08 07:48:12;;;;;;;;;;;;;;;25.61;nan;100576.94;5051638;28;19912;-45
2021/09/08 07:50:38;;;;;;;;;;;;;;;25.63;nan;100590.38;5050524;28;19919;-45
2021/09/08 07:53:08;;;;;;;;;;;;;;;25.63;nan;100583.06;5051534;28;19919;-45
2021/09/08 07:55:34;;;;;;;;;;;;;;;25.64;nan;100576.63;5051554;28;19916;-44
2021/09/08 07:57:59;;;;;;;;;;;;;;;25.64;nan;100576.63;5051458;28;20298;-45
2021/09/08 08:00:24;;;;;;;;;;;;;;;25.65;nan;100581.03;5052164;28;19912;-46
2021/09/08 08:02:50;;;;;;;;;;;;;;;25.65;nan;100578.31;5051450;28;20329;-46
2021/09/08 08:05:16;;;;;;;;;;;;;;;25.67;nan;100575.41;5050210;28;19912;-45
2021/09/08 08:07:46;;;;;;;;;;;;;;;25.67;nan;100580.88;5051460;28;20003;-45
2021/09/08 08:10:12;;;;;;;;;;;;;;;25.67;nan;100579.00;5051574;28;20003;-45
2021/09/08 08:12:37;;;;;;;;;;;;;;;25.69;nan;100584.28;5052938;28;20241;-45
2021/09/08 08:15:03;;;;;;;;;;;;;;;25.69;nan;100574.25;5054160;28;19913;-45
2021/09/08 08:17:29;;;;;;;;;;;;;;;25.70;nan;100580.53;5055108;28;20405;-45
2021/09/08 08:19:54;;;;;;;;;;;;;;;25.71;nan;100580.38;5055313;28;20015;-46
2021/09/08 08:22:19;;;;;;;;;;;;;;;25.72;nan;100589.41;5053665;28;19973;-45
2021/09/08 08:24:45;;;;;;;;;;;;;;;25.74;nan;100581.91;5055654;28;20268;-45
2021/09/08 08:27:10;;;;;;;;;;;;;;;25.73;nan;100581.06;5055217;28;19913;-47
2021/09/08 08:29:36;;;;;;;;;;;;;;;25.74;nan;100580.03;5055114;28;19924;-45
2021/09/08 08:32:01;;;;;;;;;;;;;;;25.75;nan;100589.06;5053661;28;20299;-45
2021/09/08 08:34:26;;;;;;;;;;;;;;;25.76;nan;100574.47;5054881;28;20290;-45
2021/09/08 08:36:52;;;;;;;;;;;;;;;25.76;nan;100569.88;5053627;28;19917;-45
2021/09/08 08:39:18;;;;;;;;;;;;;;;25.76;nan;100572.59;5054802;28;19919;-45
2021/09/08 08:41:43;;;;;;;;;;;;;;;;;;5054799;28;19917;-46
2021/09/08 08:44:09;;;;;;;;;;;;;;;25.78;nan;100575.16;5053301;28;19920;-46
2021/09/08 08:46:35;;;;;;;;;;;;;;;25.76;nan;100567.13;5054743;28;20389;-46
2021/09/08 08:49:00;;;;;;;;;;;;;;;25.79;nan;100576.84;5054666;28;19913;-46
2021/09/08 08:51:26;;;;;;;;;;;;;;;25.80;nan;100575.03;5054561;28;20000;-46
2021/09/08 08:53:51;;;;;;;;;;;;;;;25.81;nan;100576.72;5054541;28;20367;-46
2021/09/08 08:56:17;;;;;;;;;;;;;;;25.82;nan;100576.53;5054782;28;19920;-46
2021/09/08 08:58:42;;;;;;;;;;;;;;;25.82;nan;100573.81;5054439;28;20462;-46
2021/09/08 09:01:14;;;;;;;;;;;;;;;25.83;nan;100571.94;5054318;28;19913;-46
2021/09/08 09:03:39;;;;;;;;;;;;;;;25.83;nan;100566.50;5054502;28;19920;-46
2021/09/08 09:06:05;;;;;;;;;;;;;;;25.84;nan;100571.81;5054418;28;20003;-46
2021/09/08 09:08:34;;;;;;;;;;;;;;;25.84;nan;100565.50;5054244;28;19913;-46
2021/09/08 09:11:00;;;;;;;;;;;;;;;25.86;nan;100568.91;5054258;28;19952;-46
2021/09/08 09:13:32;;;;;;;;;;;;;;;25.86;nan;100567.03;5054199;28;19944;-45
2021/09/08 09:16:07;;;;;;;;;;;;;;;25.86;nan;100564.31;5054350;28;19924;-46
2021/09/08 09:18:43;;;;;;;;;;;;;;;25.85;nan;100557.16;5054678;28;19996;-46
2021/09/08 09:21:13;;;;;;;;;;;;;;;25.87;nan;100555.13;5083579;22;20376;-43
2021/09/08 09:23:58;;;;;;;;;;;;;;;25.89;nan;100557.69;5055946;28;19916;-43
2021/09/08 09:26:25;;;;;;;;;;;;;;;25.89;nan;100563.13;5074448;28;19912;-42
2021/09/08 09:28:51;;;;;;;;;;;;;;;25.91;nan;100555.63;5074060;28;19912;-42
2021/09/08 09:31:18;;;;;;;;;;;;;;;25.91;nan;100566.53;5073744;28;20275;-42
2021/09/08 09:33:44;;;;;;;;;;;;;;;25.93;nan;100561.78;5073595;28;19999;-42
2021/09/08 09:36:15;;;;;;;;;;;;;;;25.92;nan;100562.81;5073864;28;19916;-42
2021/09/08 09:38:40;;;;;;;;;;;;;;;25.94;nan;100566.19;5073845;28;19916;-42
2021/09/08 09:41:06;;;;;;;;;;;;;;;25.95;nan;100557.88;5073677;28;19919;-42
2021/09/08 09:43:31;;;;;;;;;;;;;;;25.95;nan;100557.03;5073687;28;20003;-41
2021/09/08 09:45:57;;;;;;;;;;;;;;;25.95;nan;100562.47;5073843;28;19951;-42
2021/09/08 09:48:22;;;;;;;;;;;;;;;25.97;nan;100552.25;5073773;28;19912;-42
2021/09/08 09:50:47;;;;;;;;;;;;;;;25.97;nan;100544.94;5073538;28;19912;-42
2021/09/08 09:53:14;;;;;;;;;;;;;;;25.97;nan;100554.97;5055815;28;19920;-41
2021/09/08 09:55:40;;;;;;;;;;;;;;;26.00;nan;100554.66;5073375;28;19967;-42
2021/09/08 09:58:06;;;;;;;;;;;;;;;26.00;nan;100549.22;5073520;28;19912;-42
2021/09/08 10:00:31;;;;;;;;;;;;;;;26.01;nan;100545.47;5073181;28;19919;-42
2021/09/08 10:02:57;;;;;;;;;;;;;;;26.01;nan;100550.91;5055398;28;20400;-42
2021/09/08 10:05:22;;;;;;;;;;;;;;;26.02;nan;100541.72;5073220;28;20003;-43
2021/09/08 10:07:48;;;;;;;;;;;;;;;26.03;nan;100537.16;5073287;28;19912;-42
2021/09/08 10:10:15;;;;;;;;;;;;;;;26.03;nan;100538.00;5073106;28;19913;-42
2021/09/08 10:12:48;;;;;;;;;;;;;;;26.04;nan;100538.84;5073011;28;19959;-41
2021/09/08 10:15:15;;;;;;;;;;;;;;;26.05;nan;100541.38;5072864;28;20011;-42
2021/09/08 10:17:41;;;;;;;;;;;;;;;26.05;nan;100538.66;5073039;28;19919;-42
2021/09/08 10:20:08;;;;;;;;;;;;;;;26.06;nan;100547.69;5072898;28;20451;-42
2021/09/08 10:22:37;;;;;;;;;;;;;;;26.06;nan;100543.09;5073002;28;19966;-42
2021/09/08 10:25:10;;;;;;;;;;;;;;;26.08;nan;100545.66;5072568;28;19912;-42
2021/09/08 10:27:36;;;;;;;;;;;;;;;26.08;nan;100541.06;5072764;28;19928;-42
2021/09/08 10:30:02;;;;;;;;;;;;;;;26.08;nan;100546.50;5072689;28;20401;-42
2021/09/08 10:32:27;;;;;;;;;;;;;;;26.08;nan;100543.78;5072794;28;20345;-42
2021/09/08 10:34:52;;;;;;;;;;;;;;;26.09;nan;100542.75;5072137;28;20341;-42
2021/09/08 10:37:18;;;;;;;;;;;;;;;26.10;nan;100543.59;5072521;28;19969;-42
2021/09/08 10:39:45;;;;;;;;;;;;;;;26.09;nan;100542.75;5072638;28;19912;-42
2021/09/08 10:42:10;;;;;;;;;;;;;;;26.11;nan;100543.47;5072529;28;19912;-42
2021/09/08 10:44:35;;;;;;;;;;;;;;;;;;5072513;28;20299;-42
2021/09/08 10:47:01;;;;;;;;;;;;;;;;;;5072536;28;20286;-43
2021/09/08 10:49:38;;;;;;;;;;;;;;;26.12;nan;100545.16;5072616;28;19920;-42
2021/09/08 10:52:04;;;;;;;;;;;;;;;;;;5072455;28;20371;-42
2021/09/08 10:54:29;;;;;;;;;;;;;;;26.12;nan;100547.88;5072433;28;19919;-42
2021/09/08 10:56:55;;;;;;;;;;;;;;;26.13;nan;100544.13;5072340;28;20015;-42
2021/09/08 10:59:20;;;;;;;;;;;;;;;26.14;nan;100543.13;5072379;28;19938;-42
2021/09/08 11:01:45;;;;;;;;;;;;;;;26.13;nan;100555.03;5072166;28;19921;-42
2021/09/08 11:04:14;;;;;;;;;;;;;;;26.14;nan;100540.41;5072293;28;19947;-43
2021/09/08 11:06:43;;;;;;;;;;;;;;;26.15;nan;100546.72;5072195;28;19970;-42
2021/09/08 11:09:10;;;;;;;;;;;;;;;26.13;nan;100535.09;5072111;28;19912;-41
2021/09/08 11:11:35;;;;;;;;;;;;;;;;;;5071963;28;19912;-44
2021/09/08 11:14:01;;;;;;;;;;;;;;;26.15;nan;100536.66;5072216;28;19919;-42
2021/09/08 11:16:27;;;;;;;;;;;;;;;26.15;nan;100536.66;5072106;28;20171;-41
2021/09/08 11:18:54;;;;;;;;;;;;;;;26.13;nan;100533.22;5072198;28;19912;-42
2021/09/08 11:21:23;;;;;;;;;;;;;;;26.15;nan;100536.66;5071723;28;20286;-42
2021/09/08 11:23:55;;;;;;;;;;;;;;;26.14;nan;100521.34;5071923;28;20446;-42
2021/09/08 11:26:21;;;;;;;;;;;;;;;26.16;nan;100521.16;5071984;28;19923;-42
2021/09/08 11:28:46;;;;;;;;;;;;;;;26.17;nan;100522.84;5072263;28;19912;-42
2021/09/08 11:31:16;;;;;;;;;;;;;;;26.17;nan;100523.72;5071808;28;19917;-42
2021/09/08 11:33:41;;;;;;;;;;;;;;;;;;5072007;28;19913;-42
2021/09/08 11:36:13;;;;;;;;;;;;;;;26.15;nan;100517.59;5053714;28;19917;-42
2021/09/08 11:38:45;;;;;;;;;;;;;;;26.18;nan;100517.25;5071836;28;19916;-43
2021/09/08 11:41:12;;;;;;;;;;;;;;;26.18;nan;100509.09;5053690;28;19919;-43
2021/09/08 11:43:49;;;;;;;;;;;;;;;26.17;nan;100503.78;5071856;28;19916;-42
2021/09/08 11:46:14;;;;;;;;;;;;;;;26.19;nan;100505.34;5071796;28;19912;-43
2021/09/08 11:48:40;;;;;;;;;;;;;;;26.20;nan;100512.47;5075207;28;19919;-42
2021/09/08 11:51:08;;;;;;;;;;;;;;;26.20;nan;100506.19;5075896;28;19955;-41
2021/09/08 11:53:34;;;;;;;;;;;;;;;26.20;nan;100498.00;5075706;28;19912;-42
2021/09/08 11:56:07;;;;;;;;;;;;;;;26.20;nan;100498.84;5075999;28;19921;-41
2021/09/08 11:58:32;;;;;;;;;;;;;;;26.20;nan;100507.03;5075817;28;19913;-41
2021/09/08 12:00:58;;;;;;;;;;;;;;;26.22;nan;100505.00;5057758;28;20507;-41
2021/09/08 12:03:24;;;;;;;;;;;;;;;26.21;nan;100500.59;5075626;28;19919;-42
2021/09/08 12:05:50;;;;;;;;;;;;;;;26.22;nan;100491.38;5075740;28;19912;-42
2021/09/08 12:08:19;;;;;;;;;;;;;;;26.23;nan;100486.78;5057560;28;19922;-42
2021/09/08 12:10:44;;;;;;;;;;;;;;;26.22;nan;100491.38;5075590;28;19912;-42
2021/09/08 12:13:09;;;;;;;;;;;;;;;26.23;nan;100484.91;5075454;28;19994;-42
2021/09/08 12:15:35;;;;;;;;;;;;;;;26.23;nan;100490.34;5075458;28;19927;-42
2021/09/08 12:18:13;;;;;;;;;;;;;;;26.24;nan;100483.03;5075850;28;20274;-42
2021/09/08 12:20:38;;;;;;;;;;;;;;;26.24;nan;100500.22;5075186;28;20003;-42
2021/09/08 12:23:21;;;;;;;;;;;;;;;26.24;nan;100494.78;5057316;28;20003;-44
2021/09/08 12:26:01;;;;;;;;;;;;;;;26.26;nan;100494.63;5075427;28;20398;-42
2021/09/08 12:28:26;;;;;;;;;;;;;;;26.27;nan;100498.19;5075294;28;20007;-42
2021/09/08 12:31:12;;;;;;;;;;;;;;;26.23;nan;100490.34;5075316;28;19947;-42
2021/09/08 12:33:50;;;;;;;;;;;;;;;26.25;nan;100488.31;5074824;28;20379;-42
2021/09/08 12:36:15;;;;;;;;;;;;;;;26.26;nan;100483.72;5075178;28;20057;-42
2021/09/08 12:38:43;;;;;;;;;;;;;;;26.28;nan;100494.44;5074791;28;19995;-42
2021/09/08 12:41:15;;;;;;;;;;;;;;;26.27;nan;100490.03;5057195;28;20409;-42
2021/09/08 12:43:42;;;;;;;;;;;;;;;26.28;nan;100491.72;5074951;28;20378;-42
2021/09/08 12:46:07;;;;;;;;;;;;;;;;;;5074925;28;19957;-42
2021/09/08 12:48:32;;;;;;;;;;;;;;;26.28;nan;100475.38;5056770;28;19919;-42
2021/09/08 12:50:58;;;;;;;;;;;;;;;26.28;nan;100475.38;5074710;28;19917;-42
2021/09/08 12:53:23;;;;;;;;;;;;;;;26.29;nan;100464.31;5074856;28;20366;-42
2021/09/08 12:55:49;;;;;;;;;;;;;;;26.28;nan;100476.22;5074670;28;20386;-42
2021/09/08 12:58:14;;;;;;;;;;;;;;;26.29;nan;100460.72;5074461;28;19919;-42
2021/09/08 13:00:39;;;;;;;;;;;;;;;26.30;nan;100473.34;5074721;28;20302;-42